Time,TemperatureF,DewpointF,PressureIn,WindDirection,WindDirectionDegrees,WindSpeedMPH,WindSpeedGustMPH,Humidity,HourlyPrecipIn,Conditions,Clouds,dailyrainin,SoftwareType,DateUTC
2013-05-01 00:01:00,42.0,28.0,29.90,East,90,0.0,0.0,58,0.00,,,0.05,,2013-05-01 07:01:00,
2013-05-01 00:11:00,42.0,28.0,29.90,East,90,0.0,0.0,58,0.00,,,0.05,,2013-05-01 07:11:00,
2013-05-01 00:21:00,41.0,27.0,29.90,SE,135,0.0,0.0,58,0.00,,,0.05,,2013-05-01 07:21:00,
2013-05-01 00:32:00,41.0,27.0,29.91,ENE,57,0.0,0.0,58,0.00,,,0.05,,2013-05-01 07:32:00,
2013-05-01 00:41:00,41.0,27.0,29.91,ENE,57,0.0,0.0,58,0.00,,,0.05,,2013-05-01 07:41:00,
2013-05-01 00:52:00,40.0,27.0,29.90,East,90,1.0,2.0,59,0.00,,,0.02,,2013-05-01 07:52:00,
2013-05-01 01:01:00,40.0,27.0,29.92,East,90,0.0,1.0,60,0.00,,,0.02,,2013-05-01 08:01:00,
2013-05-01 01:11:00,40.0,27.0,29.92,East,90,0.0,1.0,60,0.00,,,0.02,,2013-05-01 08:11:00,
2013-05-01 01:21:00,39.0,27.0,29.92,ESE,113,0.0,0.0,61,0.00,,,0.02,,2013-05-01 08:21:00,
2013-05-01 01:31:00,39.0,28.0,29.92,NNE,23,0.0,2.0,65,0.00,,,0.02,,2013-05-01 08:31:00,
2013-05-01 01:41:00,39.0,28.0,29.92,NNE,23,0.0,2.0,65,0.00,,,0.02,,2013-05-01 08:41:00,
2013-05-01 01:52:00,39.0,28.0,29.92,NNE,23,0.0,0.0,65,0.00,,,0.02,,2013-05-01 08:52:00,
2013-05-01 02:01:00,38.0,28.0,29.94,East,90,1.0,2.0,67,0.00,,,0.02,,2013-05-01 09:01:00,
2013-05-01 02:11:00,38.0,28.0,29.94,East,90,1.0,2.0,67,0.00,,,0.02,,2013-05-01 09:11:00,
2013-05-01 02:21:00,38.0,29.0,29.93,ESE,113,0.0,2.0,69,0.00,,,0.02,,2013-05-01 09:21:00,
2013-05-01 02:33:00,38.0,29.0,29.95,East,90,0.0,1.0,69,0.00,,,0.02,,2013-05-01 09:33:00,
2013-05-01 02:43:00,38.0,29.0,29.95,East,90,0.0,1.0,69,0.00,,,0.02,,2013-05-01 09:43:00,
2013-05-01 02:53:00,37.0,29.0,29.94,ESE,113,1.0,2.0,72,0.00,,,0.02,,2013-05-01 09:53:00,
2013-05-01 03:02:00,37.0,28.0,29.94,NNE,23,0.0,2.0,70,0.00,,,0.02,,2013-05-01 10:02:00,
2013-05-01 03:11:00,37.0,28.0,29.94,NNE,23,0.0,2.0,70,0.00,,,0.02,,2013-05-01 10:11:00,
2013-05-01 03:22:00,38.0,29.0,29.94,NNW,338,0.0,0.0,70,0.00,,,0.02,,2013-05-01 10:22:00,
2013-05-01 03:32:00,38.0,29.0,29.95,ENE,68,0.0,2.0,70,0.00,,,0.02,,2013-05-01 10:32:00,
2013-05-01 03:42:00,38.0,29.0,29.95,ENE,68,0.0,2.0,70,0.00,,,0.02,,2013-05-01 10:42:00,
2013-05-01 03:52:00,38.0,29.0,29.95,NNW,338,0.0,1.0,69,0.00,,,0.02,,2013-05-01 10:52:00,
2013-05-01 04:02:00,38.0,29.0,29.95,NNW,338,0.0,0.0,70,0.00,,,0.02,,2013-05-01 11:02:00,
2013-05-01 04:11:00,38.0,29.0,29.95,NNW,338,0.0,0.0,70,0.00,,,0.02,,2013-05-01 11:11:00,
2013-05-01 04:21:00,38.0,29.0,29.95,SE,135,1.0,3.0,70,0.00,,,0.02,,2013-05-01 11:21:00,
2013-05-01 04:32:00,38.0,29.0,29.95,NW,315,0.0,1.0,70,0.00,,,0.02,,2013-05-01 11:32:00,
2013-05-01 04:42:00,38.0,29.0,29.95,NW,315,0.0,1.0,70,0.00,,,0.02,,2013-05-01 11:42:00,
2013-05-01 04:52:00,37.0,29.0,29.96,North,0,0.0,0.0,72,0.00,,,0.02,,2013-05-01 11:52:00,
2013-05-01 05:01:00,37.0,29.0,29.97,East,90,0.0,1.0,72,0.00,,,0.02,,2013-05-01 12:01:00,
2013-05-01 05:11:00,37.0,29.0,29.97,NE,45,1.0,1.0,72,0.00,,,0.02,,2013-05-01 12:11:00,
2013-05-01 05:21:00,37.0,29.0,29.97,NE,45,1.0,1.0,72,0.00,,,0.02,,2013-05-01 12:21:00,
2013-05-01 05:31:00,36.0,28.0,29.97,NNE,23,0.0,0.0,73,0.00,,,0.02,,2013-05-01 12:31:00,
2013-05-01 05:41:00,36.0,28.0,29.97,NNE,23,0.0,0.0,73,0.00,,,0.02,,2013-05-01 12:41:00,
2013-05-01 05:51:00,36.0,28.0,29.97,East,90,0.0,1.0,73,0.00,,,0.02,,2013-05-01 12:51:00,
2013-05-01 06:01:00,36.0,29.0,29.98,ESE,113,1.0,2.0,74,0.00,,,0.02,,2013-05-01 13:01:00,
2013-05-01 06:11:00,36.0,29.0,29.98,ESE,113,1.0,2.0,74,0.00,,,0.02,,2013-05-01 13:11:00,
2013-05-01 06:21:00,37.0,29.0,30.00,East,90,1.0,2.0,73,0.00,,,0.02,,2013-05-01 13:21:00,
2013-05-01 06:31:00,37.0,29.0,30.00,East,90,1.0,2.0,74,0.00,,,0.02,,2013-05-01 13:31:00,
2013-05-01 06:42:00,37.0,29.0,30.00,East,90,1.0,2.0,74,0.00,,,0.02,,2013-05-01 13:42:00,
2013-05-01 06:52:00,37.0,29.0,29.99,ESE,113,0.0,1.0,74,0.00,,,0.02,,2013-05-01 13:52:00,
2013-05-01 07:01:00,37.0,29.0,30.00,East,90,0.0,1.0,74,0.00,,,0.00,,2013-05-01 14:01:00,
2013-05-01 07:11:00,37.0,29.0,30.00,East,90,0.0,1.0,74,0.00,,,0.00,,2013-05-01 14:11:00,
2013-05-01 07:21:00,38.0,30.0,30.01,WNW,293,0.0,0.0,74,0.00,,,0.00,,2013-05-01 14:21:00,
2013-05-01 07:31:00,38.0,31.0,30.01,WNW,293,0.0,0.0,75,0.00,,,0.00,,2013-05-01 14:31:00,
2013-05-01 07:41:00,38.0,31.0,30.01,WNW,293,0.0,0.0,75,0.00,,,0.00,,2013-05-01 14:41:00,
2013-05-01 07:52:00,42.0,33.0,30.02,East,90,0.0,0.0,70,0.00,,,0.00,,2013-05-01 14:52:00,
2013-05-01 08:01:00,42.0,33.0,30.02,NNE,23,0.0,0.0,69,0.00,,,0.00,,2013-05-01 15:01:00,
2013-05-01 08:11:00,42.0,33.0,30.02,NNE,23,0.0,0.0,69,0.00,,,0.00,,2013-05-01 15:11:00,
2013-05-01 08:32:00,49.0,34.0,30.02,WSW,248,0.0,1.0,57,0.00,,,0.00,,2013-05-01 15:32:00,
2013-05-01 08:53:00,49.0,34.0,30.03,SSE,158,1.0,2.0,55,0.00,,,0.00,,2013-05-01 15:53:00,
2013-05-01 09:02:00,49.0,33.0,30.02,SW,225,1.0,1.0,53,0.00,,,0.00,,2013-05-01 16:02:00,
2013-05-01 09:12:00,49.0,33.0,30.02,SW,225,1.0,1.0,53,0.00,,,0.00,,2013-05-01 16:12:00,
2013-05-01 09:22:00,49.0,33.0,30.02,SW,225,1.0,1.0,53,0.00,,,0.00,,2013-05-01 16:22:00,
2013-05-01 09:31:00,50.0,34.0,30.03,NW,315,1.0,1.0,55,0.00,,,0.00,,2013-05-01 16:31:00,
2013-05-01 09:42:00,50.0,34.0,30.03,NW,315,1.0,1.0,55,0.00,,,0.00,,2013-05-01 16:42:00,
2013-05-01 09:53:00,50.0,34.0,30.03,NNW,338,1.0,1.0,53,0.00,,,0.00,,2013-05-01 16:53:00,
2013-05-01 10:02:00,51.0,34.0,30.03,ENE,68,1.0,1.0,53,0.00,,,0.00,,2013-05-01 17:02:00,
2013-05-01 10:11:00,51.0,34.0,30.03,ENE,68,1.0,1.0,53,0.00,,,0.00,,2013-05-01 17:11:00,
2013-05-01 10:21:00,52.0,35.0,30.02,SW,225,1.0,1.0,52,0.00,,,0.00,,2013-05-01 17:21:00,
2013-05-01 10:31:00,52.0,35.0,30.02,SW,225,1.0,1.0,52,0.00,,,0.00,,2013-05-01 17:31:00,
2013-05-01 10:42:00,52.0,35.0,30.02,SW,225,1.0,1.0,52,0.00,,,0.00,,2013-05-01 17:42:00,
2013-05-01 10:52:00,55.0,35.0,30.02,West,270,2.0,3.0,47,0.00,,,0.00,,2013-05-01 17:52:00,
2013-05-01 11:01:00,55.0,33.0,30.02,WNW,293,2.0,3.0,44,0.00,,,0.00,,2013-05-01 18:01:00,
2013-05-01 11:11:00,55.0,33.0,30.02,WNW,293,2.0,3.0,44,0.00,,,0.00,,2013-05-01 18:11:00,
2013-05-01 11:22:00,56.0,33.0,30.02,NNW,338,2.0,3.0,42,0.00,,,0.00,,2013-05-01 18:22:00,
2013-05-01 11:32:00,57.0,34.0,30.02,NNW,338,2.0,5.0,41,0.00,,,0.00,,2013-05-01 18:32:00,
2013-05-01 11:52:00,57.0,32.0,30.03,North,0,2.0,5.0,38,0.00,,,0.00,,2013-05-01 18:52:00,
2013-05-01 12:01:00,57.0,31.0,30.04,ENE,68,2.0,3.0,37,0.00,,,0.00,,2013-05-01 19:01:00,
2013-05-01 12:11:00,57.0,31.0,30.04,ENE,68,2.0,3.0,37,0.00,,,0.00,,2013-05-01 19:11:00,
2013-05-01 12:22:00,58.0,31.0,30.04,West,270,2.0,2.0,36,0.00,,,0.00,,2013-05-01 19:22:00,
2013-05-01 12:31:00,59.0,30.0,30.02,WSW,248,2.0,5.0,33,0.00,,,0.00,,2013-05-01 19:31:00,
2013-05-01 12:42:00,59.0,30.0,30.02,WSW,248,2.0,5.0,33,0.00,,,0.00,,2013-05-01 19:42:00,
2013-05-01 12:52:00,60.0,32.0,30.02,NNW,338,2.0,2.0,34,0.00,,,0.00,,2013-05-01 19:52:00,
2013-05-01 13:01:00,61.0,29.0,30.02,West,270,2.0,4.0,30,0.00,,,0.00,,2013-05-01 20:01:00,
2013-05-01 13:11:00,61.0,29.0,30.02,West,270,2.0,4.0,30,0.00,,,0.00,,2013-05-01 20:11:00,
2013-05-01 13:21:00,62.0,32.0,30.02,WNW,293,1.0,4.0,32,0.00,,,0.00,,2013-05-01 20:21:00,
2013-05-01 13:31:00,62.0,32.0,30.02,NNE,23,2.0,4.0,32,0.00,,,0.00,,2013-05-01 20:31:00,
2013-05-01 13:42:00,62.0,32.0,30.02,NNE,23,2.0,4.0,32,0.00,,,0.00,,2013-05-01 20:42:00,
2013-05-01 13:52:00,63.0,31.0,30.01,NW,315,2.0,4.0,30,0.00,,,0.00,,2013-05-01 20:52:00,
2013-05-01 14:01:00,63.0,31.0,30.01,West,270,2.0,3.0,30,0.00,,,0.00,,2013-05-01 21:01:00,
2013-05-01 14:11:00,63.0,31.0,30.01,West,270,2.0,3.0,30,0.00,,,0.00,,2013-05-01 21:11:00,
2013-05-01 14:21:00,64.0,32.0,30.01,NNW,338,2.0,3.0,30,0.00,,,0.00,,2013-05-01 21:21:00,
2013-05-01 14:32:00,64.0,30.0,30.02,NNW,338,2.0,4.0,28,0.00,,,0.00,,2013-05-01 21:32:00,
2013-05-01 14:42:00,64.0,30.0,30.02,NNW,338,2.0,4.0,28,0.00,,,0.00,,2013-05-01 21:42:00,
2013-05-01 14:52:00,64.0,28.0,30.01,South,180,2.0,6.0,26,0.00,,,0.00,,2013-05-01 21:52:00,
2013-05-01 15:03:00,65.0,28.0,30.01,West,270,2.0,5.0,25,0.00,,,0.00,,2013-05-01 22:03:00,
2013-05-01 15:12:00,65.0,28.0,30.01,West,270,2.0,5.0,25,0.00,,,0.00,,2013-05-01 22:12:00,
2013-05-01 15:22:00,65.0,28.0,30.01,NNW,338,3.0,6.0,25,0.00,,,0.00,,2013-05-01 22:22:00,
2013-05-01 15:32:00,65.0,28.0,30.01,SE,135,2.0,8.0,25,0.00,,,0.00,,2013-05-01 22:32:00,
2013-05-01 15:42:00,65.0,28.0,30.01,SE,135,2.0,8.0,25,0.00,,,0.00,,2013-05-01 22:42:00,
2013-05-01 15:53:00,65.0,27.0,30.01,NE,45,2.0,5.0,24,0.00,,,0.00,,2013-05-01 22:53:00,
2013-05-01 16:01:00,66.0,28.0,30.01,ENE,68,2.0,2.0,24,0.00,,,0.00,,2013-05-01 23:01:00,
2013-05-01 16:11:00,66.0,28.0,30.01,ENE,68,2.0,2.0,24,0.00,,,0.00,,2013-05-01 23:11:00,
2013-05-01 16:21:00,66.0,28.0,30.00,SSW,203,3.0,4.0,24,0.00,,,0.00,,2013-05-01 23:21:00,
2013-05-01 16:31:00,66.0,28.0,30.00,West,270,2.0,4.0,24,0.00,,,0.00,,2013-05-01 23:31:00,
2013-05-01 16:42:00,66.0,28.0,30.00,West,270,2.0,4.0,24,0.00,,,0.00,,2013-05-01 23:42:00,
2013-05-01 16:52:00,66.0,28.0,30.02,West,270,2.0,4.0,24,0.00,,,0.00,,2013-05-01 23:52:00,
2013-05-01 17:01:00,66.0,28.0,30.00,NNW,338,2.0,4.0,24,0.00,,,0.00,,2013-05-02 00:01:00,
2013-05-01 17:11:00,66.0,28.0,30.00,NNW,338,2.0,4.0,24,0.00,,,0.00,,2013-05-02 00:11:00,
2013-05-01 17:21:00,65.0,26.0,29.99,West,270,2.0,4.0,23,0.00,,,0.00,,2013-05-02 00:21:00,
2013-05-01 17:31:00,65.0,27.0,29.99,South,180,2.0,4.0,24,0.00,,,0.00,,2013-05-02 00:31:00,
2013-05-01 17:41:00,65.0,27.0,29.99,South,180,2.0,4.0,24,0.00,,,0.00,,2013-05-02 00:41:00,
2013-05-01 17:52:00,65.0,27.0,29.99,West,270,2.0,6.0,24,0.00,,,0.00,,2013-05-02 00:52:00,
2013-05-01 18:01:00,66.0,29.0,29.99,WNW,293,2.0,2.0,25,0.00,,,0.00,,2013-05-02 01:01:00,
2013-05-01 18:11:00,66.0,29.0,29.99,WNW,293,2.0,2.0,25,0.00,,,0.00,,2013-05-02 01:11:00,
2013-05-01 18:21:00,66.0,29.0,29.99,West,270,2.0,3.0,25,0.00,,,0.00,,2013-05-02 01:21:00,
2013-05-01 18:32:00,66.0,28.0,29.99,West,270,2.0,3.0,24,0.00,,,0.00,,2013-05-02 01:32:00,
2013-05-01 18:42:00,66.0,28.0,29.99,West,270,2.0,3.0,24,0.00,,,0.00,,2013-05-02 01:42:00,
2013-05-01 18:52:00,65.0,27.0,29.99,WNW,293,2.0,3.0,24,0.00,,,0.00,,2013-05-02 01:52:00,
2013-05-01 19:01:00,64.0,28.0,29.98,North,0,2.0,3.0,26,0.00,,,0.00,,2013-05-02 02:01:00,
2013-05-01 19:11:00,64.0,28.0,29.98,North,0,2.0,3.0,26,0.00,,,0.00,,2013-05-02 02:11:00,
2013-05-01 19:21:00,63.0,29.0,29.98,West,270,1.0,2.0,27,0.00,,,0.00,,2013-05-02 02:21:00,
2013-05-01 19:31:00,63.0,29.0,29.98,WSW,248,1.0,2.0,27,0.00,,,0.00,,2013-05-02 02:31:00,
2013-05-01 19:42:00,63.0,29.0,29.98,WSW,248,1.0,2.0,27,0.00,,,0.00,,2013-05-02 02:42:00,
2013-05-01 19:51:00,63.0,29.0,29.98,WSW,248,1.0,2.0,27,0.00,,,0.00,,2013-05-02 02:51:00,
2013-05-01 20:01:00,60.0,28.0,29.99,NW,315,2.0,6.0,30,0.00,,,0.00,,2013-05-02 03:01:00,
2013-05-01 20:11:00,60.0,28.0,29.99,NW,315,2.0,6.0,30,0.00,,,0.00,,2013-05-02 03:11:00,
2013-05-01 20:21:00,60.0,28.0,29.99,NW,315,2.0,6.0,30,0.00,,,0.00,,2013-05-02 03:21:00,
2013-05-01 20:32:00,57.0,27.0,29.99,North,0,1.0,2.0,32,0.00,,,0.00,,2013-05-02 03:32:00,
2013-05-01 20:42:00,57.0,27.0,29.99,North,0,1.0,2.0,32,0.00,,,0.00,,2013-05-02 03:42:00,
2013-05-01 20:53:00,55.0,29.0,29.98,NNW,338,0.0,0.0,36,0.00,,,0.00,,2013-05-02 03:53:00,
2013-05-01 21:03:00,54.0,30.0,29.98,NNE,23,0.0,0.0,39,0.00,,,0.00,,2013-05-02 04:03:00,
2013-05-01 21:12:00,54.0,30.0,29.98,NNE,23,0.0,0.0,39,0.00,,,0.00,,2013-05-02 04:12:00,
2013-05-01 21:22:00,54.0,30.0,29.98,NW,315,0.0,0.0,40,0.00,,,0.00,,2013-05-02 04:22:00,
2013-05-01 21:33:00,53.0,31.0,29.99,NNW,338,0.0,0.0,43,0.00,,,0.00,,2013-05-02 04:33:00,
2013-05-01 21:42:00,53.0,31.0,29.99,NNW,338,0.0,0.0,43,0.00,,,0.00,,2013-05-02 04:42:00,
2013-05-01 21:52:00,52.0,31.0,29.99,NNW,338,0.0,0.0,45,0.00,,,0.00,,2013-05-02 04:52:00,
2013-05-01 22:02:00,52.0,32.0,30.00,ENE,68,0.0,0.0,46,0.00,,,0.00,,2013-05-02 05:02:00,
2013-05-01 22:11:00,52.0,32.0,30.00,ENE,68,0.0,0.0,46,0.00,,,0.00,,2013-05-02 05:11:00,
2013-05-01 22:22:00,52.0,32.0,30.00,NE,45,0.0,0.0,47,0.00,,,0.00,,2013-05-02 05:22:00,
2013-05-01 22:32:00,51.0,31.0,30.00,WNW,293,0.0,0.0,47,0.00,,,0.00,,2013-05-02 05:32:00,
2013-05-01 22:42:00,51.0,31.0,30.00,WNW,293,0.0,0.0,47,0.00,,,0.00,,2013-05-02 05:42:00,
2013-05-01 22:51:00,51.0,31.0,30.00,WNW,293,0.0,0.0,47,0.00,,,0.00,,2013-05-02 05:51:00,
2013-05-01 23:01:00,51.0,31.0,30.00,West,270,0.0,2.0,47,0.00,,,0.00,,2013-05-02 06:01:00,
2013-05-01 23:11:00,51.0,31.0,30.00,West,270,0.0,2.0,47,0.00,,,0.00,,2013-05-02 06:11:00,
2013-05-01 23:21:00,51.0,31.0,30.01,NW,315,0.0,0.0,47,0.00,,,0.00,,2013-05-02 06:21:00,
2013-05-01 23:31:00,51.0,32.0,30.01,East,90,0.0,0.0,48,0.00,,,0.00,,2013-05-02 06:31:00,
2013-05-01 23:42:00,51.0,32.0,30.01,East,90,0.0,0.0,48,0.00,,,0.00,,2013-05-02 06:42:00,
2013-05-01 23:52:00,51.0,32.0,30.00,ENE,68,1.0,2.0,48,0.00,,,0.00,,2013-05-02 06:52:00,